US-0466 weather

Schroeder's field
Dogwood, Arkansas, United States

Public forecast

Using degrees Fahrenheit for public forecast. Weather courtesy of forecast.io.

METAR (pilot weather report)

Closest report is Searcy Municipal Airport, 8.3 nm (15.4 km) N. Retrieved 2019/07/17 05:15 UTC (37 minutes ago):

KSRC 170515Z AUTO 00000KT 1/2SM FG CLR 23/23 A2999 RMK AO2

TAF (pilot weather forecast)

Forecast is more than 6 hours old.

Closest forecast is Little Rock Air Force Base, 22.2 nm (41.2 km) WSW. Retrieved 2019/07/16 23:06 UTC (7 hours ago):

TAF TAF KLRF 162300Z 1623/1805 21009KT 9999 SCT020 BKN200 QNH2991INS BECMG 1703/1704 VRB06KT 8000 BR SCT035 QNH2994INS BECMG 1708/1709 21006KT 8000 BR SCT035 WS020/23035KT QNH2995INS BECMG 1710/1711 21006KT 8000 BR SCT008 WS020/23035KT QNH2997INS BECMG 1714/1715 23010G15KT 9999 NSW FEW020 QNH2993INS BECMG 1800/1801 VRB06KT 9999 FEW035 QNH2993INS TX34/1721Z TN24/1711Z